Terminal Aerodrome Forecast
Issued by NWS

Home | Current Version | Previous Version | Text Only | Print | Product List | Glossary On
Versions: 1 2 3 4 5 6 7 8 9 10 11 12 13 14 15 16 17 18 19 20 21 22
000
FTPQ31 PGUM 201126
TAFGUM
TAF

TAF
PTYA 201126Z 2012/2112 06007KT P6SM VCSH SCT016 BKN130
     FM202000 07012KT P6SM VCSH SCT016 SCT040 BKN130
      TEMPO 2020/2024 3SM +SHRA BKN016 BKN040 OVC130
     FM210000 08012KT P6SM VCSH SCT016 SCT040 BKN130
      TEMPO 2100/2104 3SM +SHRA BKN016 BKN040 OVC130=

USA.gov is the U.S. government's official web portal to all federal, state and local government web resources and services.